Time;durP1;ratioP1;P1;durP2;ratioP2;P2;SDS_P1;SDS_P2;PMS_P1;PMS_P2;Temp;Humidity;BMP_temperature;BMP_pressure;BME280_temperature;BME280_humidity;BME280_pressure;Samples;Min_cycle;Max_cycle;Signal;HPM_P1;HPM_P2
2023/01/06 00:01:32;;;;;;;4.05;1.20;;;3.70;99.90;;;;;;5090447;28;20483;-58
2023/01/06 00:03:59;;;;;;;1.55;1.10;;;3.60;99.90;;;;;;5089592;28;20024;-56
2023/01/06 00:06:27;;;;;;;2.17;0.82;;;3.50;99.90;;;;;;5088942;28;20020;-57
2023/01/06 00:08:54;;;;;;;3.72;1.13;;;3.40;99.90;;;;;;5090354;28;20110;-57
2023/01/06 00:11:20;;;;;;;1.75;0.80;;;3.30;99.90;;;;;;5091195;28;20027;-57
2023/01/06 00:13:45;;;;;;;4.45;1.23;;;3.30;99.90;;;;;;5091026;28;20027;-58
2023/01/06 00:16:14;;;;;;;2.40;0.80;;;3.20;99.90;;;;;;5092061;28;20032;-55
2023/01/06 00:18:40;;;;;;;3.17;0.90;;;3.10;99.90;;;;;;5094600;28;20062;-54
2023/01/06 00:21:07;;;;;;;1.08;0.82;;;3.00;99.90;;;;;;5109777;28;20063;-55
2023/01/06 00:23:33;;;;;;;4.40;1.10;;;3.00;99.90;;;;;;5088462;28;20028;-55
2023/01/06 00:25:59;;;;;;;3.38;0.90;;;2.80;99.90;;;;;;5108925;28;20054;-52
2023/01/06 00:28:24;;;;;;;3.83;0.68;;;2.80;99.90;;;;;;5099305;28;20079;-49
2023/01/06 00:30:50;;;;;;;2.42;0.80;;;2.70;99.90;;;;;;5089342;28;20028;-50
2023/01/06 00:33:16;;;;;;;1.92;0.90;;;2.60;99.90;;;;;;5106351;28;20023;-51
2023/01/06 00:35:41;;;;;;;2.55;0.70;;;2.60;99.90;;;;;;5090726;28;20097;-53
2023/01/06 00:38:07;;;;;;;3.33;0.70;;;2.50;99.90;;;;;;5107619;28;20030;-52
2023/01/06 00:40:32;;;;;;;2.38;0.75;;;2.40;99.90;;;;;;5090358;28;20055;-53
2023/01/06 00:42:58;;;;;;;3.53;0.93;;;2.30;99.90;;;;;;5107519;28;20091;-50
2023/01/06 00:45:23;;;;;;;2.88;0.73;;;2.20;99.90;;;;;;5110319;28;20068;-48
2023/01/06 00:47:49;;;;;;;5.07;1.25;;;2.20;99.90;;;;;;5094163;28;20019;-51
2023/01/06 00:50:14;;;;;;;2.35;1.20;;;2.10;99.90;;;;;;5110154;28;20062;-50
2023/01/06 00:52:40;;;;;;;3.58;0.82;;;2.10;99.90;;;;;;5091498;28;20057;-53
2023/01/06 00:55:06;;;;;;;3.25;0.80;;;2.10;99.90;;;;;;5110186;28;20020;-51
2023/01/06 00:57:31;;;;;;;3.67;0.65;;;2.10;99.90;;;;;;5091474;28;20432;-52
2023/01/06 00:59:57;;;;;;;4.35;1.65;;;2.10;99.90;;;;;;5110192;28;20027;-51
2023/01/06 01:02:22;;;;;;;1.33;0.57;;;2.20;99.90;;;;;;5088938;28;20031;-50
2023/01/06 01:04:48;;;;;;;2.15;0.60;;;2.20;99.90;;;;;;5105846;28;20058;-53
2023/01/06 01:07:14;;;;;;;2.78;1.05;;;2.20;99.90;;;;;;5088388;28;20028;-53
2023/01/06 01:09:39;;;;;;;2.58;1.02;;;2.20;99.90;;;;;;5108708;28;20047;-50
2023/01/06 01:12:11;;;;;;;2.92;1.00;;;2.20;99.90;;;;;;5090010;28;20130;-52
2023/01/06 01:14:48;;;;;;;3.35;1.00;;;2.20;99.90;;;;;;5089582;28;20891;-53
2023/01/06 01:17:19;;;;;;;1.85;0.70;;;2.20;99.90;;;;;;5068926;28;20481;-47
2023/01/06 01:19:49;;;;;;;2.38;0.98;;;2.20;99.90;;;;;;5109804;28;20016;-53
2023/01/06 01:22:14;;;;;;;1.85;0.70;;;2.20;99.90;;;;;;5086929;28;20115;-51
2023/01/06 01:24:40;;;;;;;3.63;1.00;;;2.20;99.90;;;;;;5109712;28;20098;-51
2023/01/06 01:27:06;;;;;;;1.58;0.80;;;2.30;99.90;;;;;;5089869;28;20157;-53
2023/01/06 01:29:31;;;;;;;1.05;0.77;;;2.40;99.90;;;;;;5107337;28;20518;-50
2023/01/06 01:31:57;;;;;;;2.63;0.95;;;2.50;99.90;;;;;;5089734;28;20047;-50
2023/01/06 01:34:23;;;;;;;2.08;0.70;;;2.50;99.90;;;;;;5087534;28;20016;-51
2023/01/06 01:36:50;;;;;;;1.77;0.80;;;2.60;99.90;;;;;;5108671;28;20066;-52
2023/01/06 01:39:18;;;;;;;1.52;0.85;;;2.60;99.90;;;;;;5087682;28;20107;-52
2023/01/06 01:41:44;;;;;;;3.25;0.80;;;2.60;99.90;;;;;;5108929;28;20043;-53
2023/01/06 01:44:47;;;;;;;0.85;0.75;;;2.70;99.90;;;;;;5087625;28;20028;-53
2023/01/06 01:47:17;;;;;;;1.42;0.85;;;2.70;99.90;;;;;;5106589;28;20031;-52
2023/01/06 01:49:45;;;;;;;3.28;1.30;;;2.70;99.90;;;;;;5109358;28;20040;-54
2023/01/06 01:52:12;;;;;;;3.95;1.27;;;2.70;99.90;;;;;;5086256;28;20515;-51
2023/01/06 01:54:39;;;;;;;4.82;1.10;;;2.70;99.90;;;;;;5109382;28;20028;-48
2023/01/06 01:57:10;;;;;;;6.18;1.00;;;2.70;99.90;;;;;;5089197;28;20038;-51
2023/01/06 01:59:39;;;;;;;2.60;1.00;;;2.70;99.90;;;;;;5109322;28;20027;-51
2023/01/06 02:02:04;;;;;;;2.55;0.90;;;2.70;99.90;;;;;;5089048;28;20032;-52
2023/01/06 02:04:33;;;;;;;3.60;1.13;;;2.70;99.90;;;;;;5104008;28;20146;-51
2023/01/06 02:06:58;;;;;;;3.75;1.40;;;2.70;99.90;;;;;;5081531;28;20118;-52
2023/01/06 02:09:42;;;;;;;2.08;0.80;;;2.70;99.90;;;;;;5087397;28;20229;-56
2023/01/06 02:12:08;;;;;;;2.33;1.23;;;2.60;99.90;;;;;;5067293;28;20027;-54
2023/01/06 02:14:33;;;;;;;2.63;1.35;;;2.70;99.90;;;;;;5068638;28;20111;-51
2023/01/06 02:17:27;;;;;;;1.50;0.90;;;2.70;99.90;;;;;;5107602;28;20157;-51
2023/01/06 02:20:25;;;;;;;4.05;1.20;;;2.70;99.90;;;;;;5109183;28;20369;-51
2023/01/06 02:22:54;;;;;;;3.00;0.93;;;2.70;99.90;;;;;;5092745;28;20028;-50
2023/01/06 02:25:58;;;;;;;2.80;1.00;;;2.70;99.90;;;;;;5109023;28;20073;-50
2023/01/06 02:28:45;;;;;;;6.00;1.30;;;2.70;99.90;;;;;;5074768;28;20411;-52
2023/01/06 02:31:22;;;;;;;5.90;1.02;;;2.80;99.90;;;;;;5068585;28;20039;-53
2023/01/06 02:34:01;;;;;;;3.85;1.10;;;2.80;99.90;;;;;;5093173;28;20681;-51
2023/01/06 02:36:55;;;;;;;1.90;1.10;;;2.80;99.90;;;;;;5068342;28;20048;-51
2023/01/06 02:40:00;;;;;;;3.17;1.30;;;2.90;99.90;;;;;;5085044;28;20035;-50
2023/01/06 02:42:43;;;;;;;2.80;1.00;;;3.00;99.90;;;;;;5071484;28;20020;-50
2023/01/06 02:45:18;;;;;;;3.83;1.02;;;3.10;99.90;;;;;;5108836;28;20020;-52
2023/01/06 02:47:55;;;;;;;6.13;1.50;;;3.10;99.90;;;;;;5094901;28;20080;-51
2023/01/06 02:50:39;;;;;;;6.53;1.20;;;3.20;99.90;;;;;;5112725;28;20476;-50
2023/01/06 02:53:32;;;;;;;2.53;1.17;;;3.20;99.90;;;;;;5086059;28;20122;-53
2023/01/06 02:55:58;;;;;;;1.98;0.77;;;3.20;99.90;;;;;;5071930;28;20086;-48
2023/01/06 02:58:49;;;;;;;4.25;1.10;;;3.30;99.90;;;;;;5109189;28;20069;-49
2023/01/06 03:01:41;;;;;;;4.53;1.10;;;3.30;99.90;;;;;;5071624;28;20121;-52
2023/01/06 03:04:14;;;;;;;3.95;1.00;;;3.30;99.90;;;;;;5092839;28;20040;-52
2023/01/06 03:06:44;;;;;;;2.90;1.10;;;3.40;99.90;;;;;;5065562;28;20021;-52
2023/01/06 03:09:14;;;;;;;2.47;1.10;;;3.40;99.90;;;;;;5093011;28;20081;-49
2023/01/06 03:11:41;;;;;;;3.47;1.40;;;3.40;99.90;;;;;;5112093;28;20203;-53
2023/01/06 03:14:28;;;;;;;1.17;0.80;;;3.30;99.90;;;;;;5090147;28;20028;-50
2023/01/06 03:16:54;;;;;;;2.88;1.05;;;3.40;99.90;;;;;;5071518;28;20625;-51
2023/01/06 03:19:20;;;;;;;2.40;1.27;;;3.30;99.90;;;;;;5090383;28;20107;-51
2023/01/06 03:21:47;;;;;;;2.55;0.82;;;3.40;99.90;;;;;;5111358;28;20028;-50
2023/01/06 03:24:14;;;;;;;3.97;1.10;;;3.40;99.90;;;;;;5090053;28;20077;-50
2023/01/06 03:26:42;;;;;;;3.05;1.08;;;3.50;99.90;;;;;;5111380;28;20019;-48
2023/01/06 03:29:11;;;;;;;7.65;1.60;;;3.50;99.90;;;;;;5089634;28;20048;-47
2023/01/06 03:31:59;;;;;;;4.03;1.30;;;3.50;99.90;;;;;;5111352;28;20028;-49
2023/01/06 03:34:46;;;;;;;3.08;1.30;;;3.50;99.90;;;;;;5088089;28;20438;-52
2023/01/06 03:37:50;;;;;;;3.20;1.20;;;3.50;99.90;;;;;;5109161;28;20020;-51
2023/01/06 03:40:33;;;;;;;2.13;1.08;;;3.50;99.90;;;;;;5067846;28;20028;-47
2023/01/06 03:43:23;;;;;;;3.20;1.05;;;3.50;99.90;;;;;;5083357;28;20051;-48
2023/01/06 03:49:06;;;;;;;3.47;1.13;;;3.60;99.90;;;;;;5099979;28;20054;-46
2023/01/06 03:51:51;;;;;;;2.03;1.20;;;3.60;99.90;;;;;;5070628;28;20059;-52
2023/01/06 03:54:32;;;;;;;4.07;1.37;;;3.60;99.90;;;;;;5088915;28;20412;-52
2023/01/06 03:57:19;;;;;;;3.35;1.20;;;3.70;99.90;;;;;;5111152;28;20269;-50
2023/01/06 03:59:56;;;;;;;1.73;0.88;;;3.70;99.90;;;;;;5070158;28;20037;-48
2023/01/06 04:02:22;;;;;;;5.53;1.27;;;3.70;99.90;;;;;;5072337;28;20067;-50
2023/01/06 04:05:11;;;;;;;3.10;1.02;;;3.70;99.90;;;;;;5102720;28;20059;-50
2023/01/06 04:07:38;;;;;;;4.78;1.10;;;3.70;99.90;;;;;;5092625;28;20491;-52
2023/01/06 04:10:05;;;;;;;1.60;1.20;;;3.70;99.90;;;;;;5111077;28;20063;-48
2023/01/06 04:12:39;;;;;;;4.53;1.30;;;3.70;99.90;;;;;;5091908;28;20480;-51
2023/01/06 04:15:16;;;;;;;6.30;1.50;;;3.70;99.90;;;;;;5110767;28;20031;-57
2023/01/06 04:17:43;;;;;;;4.82;1.10;;;3.70;99.90;;;;;;5076287;28;20047;-58
2023/01/06 04:20:12;;;;;;;5.78;1.50;;;3.80;99.90;;;;;;5110529;28;20103;-57
2023/01/06 04:22:37;;;;;;;2.28;1.10;;;3.80;99.90;;;;;;5092840;28;20023;-56
2023/01/06 04:25:04;;;;;;;2.13;1.60;;;3.80;99.90;;;;;;5108980;28;20115;-56
2023/01/06 04:27:30;;;;;;;4.25;1.15;;;3.80;99.90;;;;;;5092616;28;20044;-58
2023/01/06 04:29:55;;;;;;;1.88;0.90;;;3.90;99.90;;;;;;5108556;28;20376;-58
2023/01/06 04:32:21;;;;;;;2.05;1.00;;;3.90;99.90;;;;;;5090554;28;20038;-59
2023/01/06 04:34:46;;;;;;;2.38;1.00;;;3.90;99.90;;;;;;5095523;28;20032;-58
2023/01/06 04:37:11;;;;;;;2.42;1.00;;;3.90;99.90;;;;;;5109565;28;20038;-58
2023/01/06 04:39:37;;;;;;;3.40;1.10;;;4.00;99.90;;;;;;5099668;28;20023;-58
2023/01/06 04:42:03;;;;;;;4.57;1.48;;;3.90;99.90;;;;;;5090579;28;20396;-59
2023/01/06 04:44:28;;;;;;;6.55;1.60;;;4.00;99.90;;;;;;5107536;28;20412;-58
2023/01/06 04:46:53;;;;;;;5.28;1.42;;;4.00;99.90;;;;;;5090368;28;20039;-58
2023/01/06 04:49:19;;;;;;;1.75;1.02;;;3.90;99.90;;;;;;5107329;28;20048;-56
2023/01/06 04:51:44;;;;;;;3.67;1.20;;;4.00;99.90;;;;;;5090346;28;20039;-57
2023/01/06 04:54:10;;;;;;;4.72;1.33;;;4.00;99.90;;;;;;5107399;28;20491;-59
2023/01/06 04:56:35;;;;;;;5.85;1.30;;;4.00;99.90;;;;;;5110059;28;20035;-58
2023/01/06 04:59:01;;;;;;;3.08;1.00;;;4.00;99.90;;;;;;5094323;28;20053;-59
2023/01/06 05:01:26;;;;;;;3.97;1.20;;;4.10;99.90;;;;;;5109998;28;20038;-58
2023/01/06 05:03:52;;;;;;;5.13;1.35;;;4.10;99.90;;;;;;5092825;28;20059;-57
2023/01/06 05:06:18;;;;;;;2.97;1.17;;;4.10;99.90;;;;;;5088434;28;20063;-57
2023/01/06 05:08:45;;;;;;;2.20;1.10;;;4.20;99.90;;;;;;5107081;28;20036;-58
2023/01/06 05:11:16;;;;;;;1.00;0.88;;;4.20;99.90;;;;;;5109158;28;20023;-59
2023/01/06 05:13:42;;;;;;;5.47;1.20;;;4.20;99.90;;;;;;5074102;28;20027;-57
2023/01/06 05:16:17;;;;;;;3.92;1.20;;;4.20;99.90;;;;;;5109779;28;20391;-58
2023/01/06 05:18:42;;;;;;;3.13;1.20;;;4.20;99.90;;;;;;5074247;28;20023;-58
2023/01/06 05:21:08;;;;;;;3.47;1.20;;;4.20;99.90;;;;;;5109738;28;20433;-58
2023/01/06 05:23:35;;;;;;;5.85;1.30;;;4.20;99.90;;;;;;5089886;28;20108;-58
2023/01/06 05:26:00;;;;;;;2.97;1.45;;;4.20;99.90;;;;;;5109743;28;20016;-55
2023/01/06 05:28:28;;;;;;;3.08;0.98;;;4.20;99.90;;;;;;5097548;28;20051;-58
2023/01/06 05:31:03;;;;;;;5.78;1.70;;;4.30;99.90;;;;;;5109525;28;20019;-57
2023/01/06 05:33:30;;;;;;;2.75;1.20;;;4.30;99.90;;;;;;5070106;28;20025;-56
2023/01/06 05:36:01;;;;;;;2.67;0.80;;;4.30;99.90;;;;;;5108166;28;20028;-57
2023/01/06 05:38:27;;;;;;;4.93;1.15;;;4.30;99.90;;;;;;5088533;28;20454;-55
2023/01/06 05:40:55;;;;;;;2.33;1.17;;;4.30;99.90;;;;;;5109452;28;20110;-58
2023/01/06 05:43:21;;;;;;;5.03;1.15;;;4.30;99.90;;;;;;5087419;28;20322;-56
2023/01/06 05:45:47;;;;;;;3.33;1.15;;;4.40;99.90;;;;;;5109691;28;20123;-57
2023/01/06 05:48:12;;;;;;;1.23;0.88;;;4.40;99.90;;;;;;5086386;28;20137;-58
2023/01/06 05:50:37;;;;;;;2.50;0.90;;;4.40;99.90;;;;;;5108061;28;20037;-58
2023/01/06 05:53:03;;;;;;;2.47;1.13;;;4.40;99.90;;;;;;5096484;28;20032;-58
2023/01/06 05:55:28;;;;;;;1.33;1.00;;;4.40;99.90;;;;;;5089138;28;20039;-54
2023/01/06 05:57:54;;;;;;;2.90;1.30;;;4.40;99.90;;;;;;5106293;28;20089;-59
2023/01/06 06:00:19;;;;;;;2.42;1.10;;;4.40;99.90;;;;;;5089106;28;20032;-57
2023/01/06 06:02:45;;;;;;;3.10;1.02;;;4.40;99.90;;;;;;5106265;28;20132;-57
2023/01/06 06:05:10;;;;;;;2.60;0.85;;;4.40;99.90;;;;;;5089375;28;20081;-58
2023/01/06 06:07:36;;;;;;;3.58;2.03;;;4.40;99.90;;;;;;5107026;28;20019;-57
2023/01/06 06:10:02;;;;;;;4.20;1.25;;;4.40;99.90;;;;;;5108899;28;20092;-59
2023/01/06 06:12:27;;;;;;;2.92;1.33;;;4.40;99.90;;;;;;5092552;28;20026;-55
2023/01/06 06:14:53;;;;;;;3.60;1.40;;;4.40;99.90;;;;;;5108955;28;20034;-56
2023/01/06 06:17:18;;;;;;;3.22;1.10;;;4.40;99.90;;;;;;5091223;28;20050;-58
2023/01/06 06:19:44;;;;;;;4.35;1.20;;;4.40;99.90;;;;;;5107611;28;20035;-57
2023/01/06 06:22:09;;;;;;;4.78;1.20;;;4.40;99.90;;;;;;5092879;28;20519;-58
2023/01/06 06:24:35;;;;;;;2.13;1.10;;;4.40;99.90;;;;;;5111489;28;20077;-54
2023/01/06 06:27:00;;;;;;;1.80;1.17;;;4.40;99.90;;;;;;5092719;28;20055;-58
2023/01/06 06:29:26;;;;;;;3.63;1.13;;;4.40;99.90;;;;;;5112759;28;20514;-58
2023/01/06 06:31:51;;;;;;;3.00;0.80;;;4.40;99.90;;;;;;5091349;28;20377;-58
2023/01/06 06:34:17;;;;;;;8.07;1.23;;;4.40;99.90;;;;;;5111306;28;20097;-57
2023/01/06 06:36:42;;;;;;;6.32;1.38;;;4.40;99.90;;;;;;5092981;28;20020;-58
2023/01/06 06:39:08;;;;;;;5.25;1.35;;;4.40;99.90;;;;;;5110318;28;20110;-58
2023/01/06 06:41:33;;;;;;;3.08;1.42;;;4.40;99.90;;;;;;5092638;28;20063;-58
2023/01/06 06:43:59;;;;;;;6.47;1.20;;;4.40;99.90;;;;;;5091508;28;20028;-56
2023/01/06 06:46:24;;;;;;;4.50;1.65;;;4.40;99.90;;;;;;5111524;28;20028;-58
2023/01/06 06:48:50;;;;;;;4.55;1.20;;;4.40;99.90;;;;;;5090689;28;20098;-58
2023/01/06 06:51:18;;;;;;;4.00;1.50;;;4.40;99.90;;;;;;5111520;28;20027;-56
2023/01/06 06:53:44;;;;;;;3.05;1.50;;;4.40;99.90;;;;;;5088195;28;20024;-58
2023/01/06 06:56:10;;;;;;;5.10;1.50;;;4.40;99.90;;;;;;5091526;28;20024;-58
2023/01/06 06:58:37;;;;;;;3.28;1.40;;;4.40;99.90;;;;;;5091594;28;20311;-58
2023/01/06 07:01:07;;;;;;;4.78;1.30;;;4.50;99.90;;;;;;5091719;28;20531;-56
2023/01/06 07:03:32;;;;;;;4.55;1.45;;;4.50;99.90;;;;;;5091646;28;20023;-58
2023/01/06 07:05:58;;;;;;;5.85;1.30;;;4.50;99.90;;;;;;5091659;28;20032;-56
2023/01/06 07:08:24;;;;;;;2.15;1.05;;;4.50;99.90;;;;;;5090201;28;20039;-58
2023/01/06 07:10:50;;;;;;;2.40;1.00;;;4.60;99.90;;;;;;5090096;28;20016;-57
2023/01/06 07:13:16;;;;;;;1.73;1.60;;;4.60;99.90;;;;;;5091356;28;20032;-57
2023/01/06 07:15:41;;;;;;;3.38;1.30;;;4.60;99.90;;;;;;5091344;28;20024;-59
2023/01/06 07:18:07;;;;;;;4.57;1.25;;;4.60;99.90;;;;;;5089202;28;20424;-58
2023/01/06 07:20:34;;;;;;;3.72;1.42;;;4.60;99.90;;;;;;5091312;28;20099;-58
2023/01/06 07:23:00;;;;;;;5.70;2.22;;;4.60;99.90;;;;;;5092633;28;20043;-54
2023/01/06 07:25:25;;;;;;;4.38;1.70;;;4.50;99.90;;;;;;5109515;28;20027;-58
2023/01/06 07:27:55;;;;;;;3.00;1.58;;;4.50;99.90;;;;;;5097021;28;20155;-58
2023/01/06 07:30:22;;;;;;;3.30;1.75;;;4.60;99.90;;;;;;5090965;28;20227;-59
2023/01/06 07:32:48;;;;;;;5.15;1.55;;;4.60;99.90;;;;;;5110318;28;20081;-57
2023/01/06 07:35:13;;;;;;;5.15;2.00;;;4.60;99.90;;;;;;5088217;28;20434;-57
2023/01/06 07:37:39;;;;;;;4.63;1.50;;;4.50;99.90;;;;;;5090991;28;20035;-58
2023/01/06 07:40:05;;;;;;;2.58;1.70;;;4.50;99.90;;;;;;5092135;28;20074;-59
2023/01/06 07:42:30;;;;;;;3.75;1.52;;;4.50;99.90;;;;;;5109702;28;20034;-59
2023/01/06 07:44:56;;;;;;;3.15;1.15;;;4.50;99.90;;;;;;5090073;28;20491;-58
2023/01/06 07:47:21;;;;;;;4.28;1.85;;;4.50;99.90;;;;;;5095449;28;20032;-57
2023/01/06 07:49:47;;;;;;;3.20;1.88;;;4.50;99.90;;;;;;5094439;28;20342;-59
2023/01/06 07:52:12;;;;;;;6.32;1.73;;;4.50;99.90;;;;;;5110622;28;20608;-58
2023/01/06 07:54:38;;;;;;;4.10;1.98;;;4.50;99.90;;;;;;5089817;28;20031;-55
2023/01/06 07:57:03;;;;;;;4.78;2.30;;;4.50;99.90;;;;;;5110654;28;20055;-58
2023/01/06 07:59:29;;;;;;;3.47;1.70;;;4.50;99.90;;;;;;5089578;28;20027;-57
2023/01/06 08:01:54;;;;;;;6.35;2.15;;;4.50;99.90;;;;;;5110510;28;20032;-59
2023/01/06 08:04:20;;;;;;;7.07;2.03;;;4.50;99.90;;;;;;5098771;28;20035;-57
2023/01/06 08:06:45;;;;;;;5.07;1.70;;;4.50;99.90;;;;;;5087892;28;20035;-58
2023/01/06 08:09:11;;;;;;;6.90;2.05;;;4.50;99.90;;;;;;5107061;28;20047;-57
2023/01/06 08:11:36;;;;;;;7.50;2.33;;;4.50;99.90;;;;;;5091037;28;20040;-58
2023/01/06 08:14:01;;;;;;;4.72;2.55;;;4.60;99.90;;;;;;5107026;28;20035;-58
2023/01/06 08:16:27;;;;;;;3.92;1.88;;;4.50;99.90;;;;;;5091099;28;20036;-62
2023/01/06 08:18:52;;;;;;;2.85;1.88;;;4.50;99.90;;;;;;5108315;28;20505;-65
2023/01/06 08:21:18;;;;;;;3.55;1.77;;;4.60;99.90;;;;;;5108715;28;20027;-62
2023/01/06 08:23:43;;;;;;;3.65;2.10;;;4.60;99.90;;;;;;5090967;28;20035;-62
2023/01/06 08:26:15;;;;;;;4.80;1.75;;;4.60;99.90;;;;;;5093849;28;20122;-62
2023/01/06 08:28:42;;;;;;;3.97;2.00;;;4.60;99.90;;;;;;5110066;28;20048;-62
2023/01/06 08:31:12;;;;;;;4.80;1.90;;;4.70;99.90;;;;;;5088844;28;20055;-61
2023/01/06 08:33:38;;;;;;;6.18;2.65;;;4.70;99.90;;;;;;5070078;28;20125;-62
2023/01/06 08:36:06;;;;;;;6.05;2.47;;;4.70;99.90;;;;;;5095334;28;20024;-62
2023/01/06 08:38:33;;;;;;;4.55;2.75;;;4.70;99.90;;;;;;5110104;28;20063;-62
2023/01/06 08:40:59;;;;;;;5.28;2.53;;;4.70;99.90;;;;;;5099836;28;20031;-62
2023/01/06 08:43:25;;;;;;;4.47;2.78;;;4.70;99.90;;;;;;5090224;28;20078;-62
2023/01/06 08:45:51;;;;;;;7.95;2.35;;;4.70;99.90;;;;;;5107786;28;20028;-62
2023/01/06 08:48:17;;;;;;;5.05;2.42;;;4.70;99.90;;;;;;5090370;28;20036;-62
2023/01/06 08:50:43;;;;;;;6.82;2.60;;;4.70;99.90;;;;;;5106276;28;20076;-62
2023/01/06 08:53:10;;;;;;;6.40;2.42;;;4.80;99.90;;;;;;5090517;28;20028;-62
2023/01/06 08:55:40;;;;;;;6.63;2.50;;;4.80;99.90;;;;;;5107697;28;20103;-62
2023/01/06 08:58:07;;;;;;;8.27;3.20;;;4.90;99.90;;;;;;5090154;28;20081;-62
2023/01/06 09:00:32;;;;;;;5.20;2.63;;;4.90;99.90;;;;;;5107563;28;20019;-62
2023/01/06 09:02:58;;;;;;;5.47;2.42;;;4.90;99.90;;;;;;5090246;28;20119;-62
2023/01/06 09:05:23;;;;;;;8.65;3.47;;;4.90;99.90;;;;;;5095899;28;20062;-62
2023/01/06 09:07:49;;;;;;;6.20;2.90;;;5.00;99.90;;;;;;5109299;28;20465;-61
2023/01/06 09:10:16;;;;;;;6.55;3.30;;;5.00;99.90;;;;;;5093341;28;20057;-62
2023/01/06 09:12:41;;;;;;;9.85;4.15;;;5.10;99.90;;;;;;5109980;28;20024;-62
2023/01/06 09:15:07;;;;;;;7.88;3.85;;;5.10;99.90;;;;;;5091990;28;20506;-61
2023/01/06 09:17:32;;;;;;;6.13;3.30;;;5.10;99.90;;;;;;5109937;28;20102;-62
2023/01/06 09:19:58;;;;;;;8.18;3.88;;;5.10;99.90;;;;;;5091117;28;20023;-62
2023/01/06 09:22:23;;;;;;;8.18;3.47;;;5.10;99.90;;;;;;5109801;28;20042;-61
2023/01/06 09:24:48;;;;;;;9.32;4.30;;;5.20;99.90;;;;;;5089591;28;20036;-62
2023/01/06 09:27:14;;;;;;;6.75;3.88;;;5.20;99.90;;;;;;5109348;28;20719;-61
2023/01/06 09:29:39;;;;;;;8.32;4.30;;;5.20;99.90;;;;;;5087805;28;20028;-61
2023/01/06 09:32:05;;;;;;;8.60;3.72;;;5.30;99.90;;;;;;5109573;28;20027;-62
2023/01/06 09:34:31;;;;;;;6.55;4.00;;;5.30;99.90;;;;;;5089778;28;20024;-62
2023/01/06 09:36:56;;;;;;;11.43;4.05;;;5.40;99.90;;;;;;5087414;28;20020;-62
2023/01/06 09:39:22;;;;;;;5.78;3.97;;;5.50;99.90;;;;;;5108784;28;20031;-62
2023/01/06 09:42:18;;;;;;;9.88;4.13;;;5.60;99.90;;;;;;5087931;28;20032;-62
2023/01/06 09:44:56;;;;;;;7.43;4.45;;;5.60;99.90;;;;;;5068936;28;20025;-62
2023/01/06 09:47:28;;;;;;;9.70;4.03;;;5.70;99.90;;;;;;5109363;28;20023;-62
2023/01/06 09:50:04;;;;;;;8.02;3.97;;;5.80;99.90;;;;;;5069176;28;20064;-62
2023/01/06 09:52:48;;;;;;;5.75;4.57;;;5.80;99.90;;;;;;5089191;28;20020;-62
2023/01/06 09:55:19;;;;;;;9.57;4.53;;;5.90;99.90;;;;;;5077901;28;20027;-62
2023/01/06 09:57:55;;;;;;;10.00;4.85;;;5.90;99.90;;;;;;5075446;28;20021;-62
2023/01/06 10:00:38;;;;;;;6.38;4.30;;;6.00;99.90;;;;;;5100092;28;20034;-63
2023/01/06 10:03:07;;;;;;;7.47;4.38;;;6.10;99.90;;;;;;5075545;28;20058;-63
2023/01/06 10:05:51;;;;;;;9.13;4.90;;;6.20;99.90;;;;;;5097499;28;20061;-62
2023/01/06 10:08:45;;;;;;;9.35;4.53;;;6.20;99.90;;;;;;5075474;28;20046;-62
2023/01/06 10:11:18;;;;;;;7.35;4.88;;;6.30;99.90;;;;;;5114099;28;20055;-62
2023/01/06 10:14:01;;;;;;;9.57;4.68;;;6.40;99.90;;;;;;5095737;28;20102;-63
2023/01/06 10:16:54;;;;;;;6.55;3.97;;;6.40;99.90;;;;;;5088974;28;20032;-62
2023/01/06 10:19:40;;;;;;;8.02;4.70;;;6.50;99.90;;;;;;5075046;28;20374;-63
2023/01/06 10:22:15;;;;;;;;;;;6.60;99.90;;;;;;5075800;28;20476;-63
2023/01/06 10:25:26;;;;;;;11.43;4.53;;;6.70;99.90;;;;;;5112397;28;20004;-62
2023/01/06 10:28:01;;;;;;;7.57;4.30;;;6.80;99.90;;;;;;5064183;28;20044;-62
2023/01/06 10:30:33;;;;;;;9.70;4.25;;;6.90;99.90;;;;;;5087191;28;20047;-62
2023/01/06 10:32:58;;;;;;;8.40;3.53;;;6.90;99.90;;;;;;5116031;28;20023;-62
2023/01/06 10:35:26;;;;;;;7.65;3.97;;;7.00;99.90;;;;;;5093374;28;20557;-63
2023/01/06 10:37:53;;;;;;;7.25;3.40;;;7.00;99.90;;;;;;5109511;28;20103;-62
2023/01/06 10:40:24;;;;;;;5.25;3.70;;;7.10;99.90;;;;;;5097575;28;20123;-62
2023/01/06 10:43:02;;;;;;;9.68;3.60;;;7.20;99.90;;;;;;5075157;28;20036;-62
2023/01/06 10:45:38;;;;;;;8.70;3.55;;;7.20;99.90;;;;;;5095559;28;20036;-63
2023/01/06 10:48:09;;;;;;;7.03;3.80;;;7.20;99.90;;;;;;5115415;28;20024;-62
2023/01/06 10:50:35;;;;;;;5.78;3.72;;;7.20;99.90;;;;;;5091051;28;20024;-62
2023/01/06 10:53:00;;;;;;;7.55;3.42;;;7.30;99.90;;;;;;5115037;28;20028;-62
2023/01/06 10:55:59;;;;;;;4.45;3.58;;;7.30;99.90;;;;;;5093882;28;20082;-62
2023/01/06 10:58:51;;;;;;;5.55;3.55;;;7.40;99.90;;;;;;5095804;28;20545;-62
2023/01/06 11:01:24;;;;;;;4.80;3.50;;;7.40;99.90;;;;;;5095138;28;20031;-63
2023/01/06 11:04:06;;;;;;;5.35;3.67;;;7.50;99.90;;;;;;5097004;28;20046;-62
2023/01/06 11:06:33;;;;;;;4.90;3.40;;;7.50;99.90;;;;;;5070190;28;20032;-62
2023/01/06 11:09:07;;;;;;;4.22;3.42;;;7.60;99.90;;;;;;5093528;28;20036;-57
2023/01/06 11:11:33;;;;;;;4.80;3.15;;;7.60;99.90;;;;;;5072008;28;20430;-55
2023/01/06 11:14:03;;;;;;;8.52;4.05;;;7.70;99.90;;;;;;5093327;28;20032;-55
2023/01/06 11:16:34;;;;;;;7.47;3.72;;;7.70;99.90;;;;;;5071852;28;20033;-53
2023/01/06 11:19:02;;;;;;;4.53;3.45;;;7.70;99.90;;;;;;5086316;28;20024;-57
2023/01/06 11:21:38;;;;;;;7.47;3.40;;;7.70;99.90;;;;;;5111838;28;20062;-57
2023/01/06 11:24:17;;;;;;;5.90;3.63;;;7.80;99.90;;;;;;5090043;28;20742;-57
2023/01/06 11:26:49;;;;;;;4.20;2.75;;;7.80;99.90;;;;;;5071605;28;20456;-54
2023/01/06 11:29:29;;;;;;;6.53;3.15;;;7.90;99.90;;;;;;5088045;28;20036;-56
2023/01/06 11:31:56;;;;;;;6.65;3.40;;;7.90;99.90;;;;;;5071358;28;20036;-56
2023/01/06 11:34:24;;;;;;;4.22;3.22;;;8.00;99.90;;;;;;5098465;28;20106;-55
2023/01/06 11:36:51;;;;;;;7.30;3.00;;;8.00;99.90;;;;;;5100455;28;20027;-55
2023/01/06 11:39:34;;;;;;;5.35;3.95;;;8.00;99.90;;;;;;5088126;28;20035;-54
2023/01/06 11:42:13;;;;;;;4.88;3.17;;;8.10;99.90;;;;;;5095927;28;20024;-57
2023/01/06 11:44:41;;;;;;;5.20;2.72;;;8.10;99.90;;;;;;5086994;28;20519;-56
2023/01/06 11:47:26;;;;;;;5.05;3.20;;;8.20;99.90;;;;;;5093441;28;20553;-56
2023/01/06 11:49:59;;;;;;;4.50;2.93;;;8.20;99.90;;;;;;5086309;28;20036;-55
2023/01/06 11:52:32;;;;;;;5.03;2.97;;;8.30;99.90;;;;;;5084265;28;20699;-56
2023/01/06 11:55:01;;;;;;;5.00;2.92;;;8.20;99.90;;;;;;5100456;28;20039;-57
2023/01/06 11:57:49;;;;;;;5.68;3.10;;;8.30;99.90;;;;;;5095553;28;20028;-55
2023/01/06 12:00:33;;;;;;;7.38;4.25;;;8.40;99.90;;;;;;5086476;28;20545;-54
2023/01/06 12:03:33;;;;;;;3.58;2.80;;;8.40;99.90;;;;;;5072015;28;20419;-57
2023/01/06 12:06:11;;;;;;;6.90;3.90;;;8.40;99.90;;;;;;5093823;28;20035;-56
2023/01/06 12:08:54;;;;;;;5.13;3.67;;;8.50;99.90;;;;;;5084140;28;20088;-58
2023/01/06 12:11:28;;;;;;;7.35;3.05;;;8.50;99.90;;;;;;5084476;28;20043;-58
2023/01/06 12:13:54;;;;;;;6.05;3.40;;;8.50;99.90;;;;;;5089037;28;20707;-57
2023/01/06 12:16:38;;;;;;;6.63;3.70;;;8.50;99.90;;;;;;5088726;28;20036;-58
2023/01/06 12:19:17;;;;;;;9.55;3.95;;;8.50;99.90;;;;;;5088419;28;20040;-58
2023/01/06 12:21:42;;;;;;;8.55;5.00;;;8.50;99.90;;;;;;5079854;28;20036;-56
2023/01/06 12:24:14;;;;;;;11.48;5.57;;;8.60;99.90;;;;;;5083188;28;20119;-59
2023/01/06 12:26:42;;;;;;;9.05;6.20;;;8.70;99.90;;;;;;5094891;28;20085;-58
2023/01/06 12:29:10;;;;;;;8.30;5.15;;;8.70;99.90;;;;;;5091204;28;20054;-58
2023/01/06 12:31:58;;;;;;;8.98;5.00;;;8.70;99.90;;;;;;5095436;28;20027;-58
2023/01/06 12:34:32;;;;;;;8.82;5.60;;;8.80;99.90;;;;;;5081464;28;20081;-58
2023/01/06 12:37:00;;;;;;;8.43;5.15;;;8.80;99.90;;;;;;5078558;28;20107;-55
2023/01/06 12:39:29;;;;;;;8.05;5.03;;;8.80;99.90;;;;;;5085960;28;20051;-56
2023/01/06 12:42:21;;;;;;;8.82;4.93;;;8.90;99.90;;;;;;5087215;28;20610;-58
2023/01/06 12:44:51;;;;;;;6.80;4.60;;;8.90;99.90;;;;;;5084313;28;20036;-56
2023/01/06 12:47:26;;;;;;;9.73;4.32;;;8.90;99.90;;;;;;5089616;28;20033;-58
2023/01/06 12:50:01;;;;;;;7.32;5.07;;;9.00;99.90;;;;;;5085354;28;20035;-58
2023/01/06 12:52:41;;;;;;;5.25;3.75;;;9.00;99.90;;;;;;5087593;28;20044;-58
2023/01/06 12:55:14;;;;;;;6.97;4.55;;;9.00;99.90;;;;;;5079926;28;20028;-58
2023/01/06 12:57:45;;;;;;;6.38;4.15;;;9.10;99.90;;;;;;5072286;28;20032;-57
2023/01/06 13:00:16;;;;;;;7.47;4.15;;;9.10;99.90;;;;;;5089048;28;20837;-59
2023/01/06 13:03:07;;;;;;;6.68;4.15;;;9.20;99.90;;;;;;5077672;28;20061;-56
2023/01/06 13:05:46;;;;;;;6.25;3.72;;;9.20;99.90;;;;;;5097774;28;20403;-60
2023/01/06 13:08:53;;;;;;;5.32;4.18;;;9.30;99.90;;;;;;5079272;28;20055;-56
2023/01/06 13:11:45;;;;;;;7.28;4.47;;;9.30;99.90;;;;;;5055876;28;20511;-56
2023/01/06 13:14:29;;;;;;;7.93;4.53;;;9.40;99.90;;;;;;5085429;28;20563;-56
2023/01/06 13:17:08;;;;;;;6.28;3.47;;;9.40;99.90;;;;;;5083501;28;20043;-58
2023/01/06 13:19:49;;;;;;;6.18;3.50;;;9.50;99.90;;;;;;5083641;28;20028;-56
2023/01/06 13:22:25;;;;;;;7.18;4.05;;;9.50;99.90;;;;;;5078511;28;20496;-57